Time;durP1;ratioP1;P1;durP2;ratioP2;P2;SDS_P1;SDS_P2;PMS_P1;PMS_P2;Temp;Humidity;BMP_temperature;BMP_pressure;BME280_temperature;BME280_humidity;BME280_pressure;Samples;Min_cycle;Max_cycle;Signal;HPM_P1;HPM_P2
2022/03/04 00:00:59;;;;;;;14.10;5.95;;;3.00;90.90;;;;;;4978352;28;20026;-65
2022/03/04 00:03:25;;;;;;;16.58;7.05;;;3.00;90.80;;;;;;4978114;28;20034;-65
2022/03/04 00:05:51;;;;;;;13.90;5.93;;;3.00;90.80;;;;;;4973104;28;20066;-65
2022/03/04 00:08:17;;;;;;;16.50;6.93;;;3.00;90.80;;;;;;4982263;28;20038;-65
2022/03/04 00:10:42;;;;;;;13.20;6.18;;;3.00;90.80;;;;;;4979452;28;20568;-66
2022/03/04 00:13:08;;;;;;;15.00;7.18;;;3.00;91.00;;;;;;4977874;28;20029;-66
2022/03/04 00:15:34;;;;;;;15.73;6.95;;;3.00;90.80;;;;;;4974835;28;20666;-65
2022/03/04 00:18:00;;;;;;;14.63;7.07;;;3.10;90.90;;;;;;4977221;28;20045;-66
2022/03/04 00:20:25;;;;;;;15.35;7.03;;;3.10;90.90;;;;;;4981766;28;20026;-65
2022/03/04 00:22:51;;;;;;;12.57;6.30;;;3.10;91.00;;;;;;4977491;28;20631;-65
2022/03/04 00:25:18;;;;;;;16.85;7.40;;;3.10;90.90;;;;;;4976973;28;20022;-65
2022/03/04 00:27:44;;;;;;;12.75;6.13;;;3.10;90.90;;;;;;4972332;28;20035;-65
2022/03/04 00:30:10;;;;;;;16.75;6.88;;;3.10;90.90;;;;;;4982692;28;20029;-65
2022/03/04 00:32:36;;;;;;;12.07;5.88;;;3.10;90.90;;;;;;4981485;28;20045;-65
2022/03/04 00:35:04;;;;;;;16.77;6.72;;;3.10;91.00;;;;;;4977215;28;20030;-65
2022/03/04 00:37:30;;;;;;;11.20;5.90;;;3.10;91.00;;;;;;4975924;28;20038;-65
2022/03/04 00:39:55;;;;;;;12.68;6.22;;;3.10;91.00;;;;;;4979098;28;20833;-66
2022/03/04 00:42:21;;;;;;;13.25;6.45;;;3.10;91.00;;;;;;4980732;28;20034;-65
2022/03/04 00:44:47;;;;;;;14.23;6.05;;;3.20;91.00;;;;;;4978785;28;20039;-66
2022/03/04 00:47:13;;;;;;;11.32;6.18;;;3.10;90.90;;;;;;4976764;28;20043;-66
2022/03/04 00:49:39;;;;;;;13.18;6.45;;;3.10;91.00;;;;;;4979231;28;20030;-65
2022/03/04 00:52:05;;;;;;;12.90;6.93;;;3.10;91.00;;;;;;4980150;28;20062;-65
2022/03/04 00:54:31;;;;;;;14.45;5.72;;;3.10;91.10;;;;;;4979366;28;20121;-65
2022/03/04 00:56:56;;;;;;;14.80;6.90;;;3.10;91.10;;;;;;4975331;28;20027;-65
2022/03/04 00:59:22;;;;;;;12.80;6.25;;;3.10;91.10;;;;;;4974764;28;20768;-66
2022/03/04 01:01:48;;;;;;;12.52;6.25;;;3.10;91.00;;;;;;4982204;28;20038;-65
2022/03/04 01:04:14;;;;;;;10.77;5.93;;;3.10;91.10;;;;;;4978496;28;20129;-66
2022/03/04 01:06:40;;;;;;;13.65;5.78;;;3.10;91.10;;;;;;4975729;28;20030;-66
2022/03/04 01:09:06;;;;;;;14.15;6.85;;;3.20;90.90;;;;;;4976005;28;20029;-67
2022/03/04 01:11:32;;;;;;;10.55;5.90;;;3.10;90.90;;;;;;4975381;28;20819;-66
2022/03/04 01:13:57;;;;;;;11.77;6.70;;;3.00;90.90;;;;;;4979832;28;20042;-66
2022/03/04 01:16:24;;;;;;;13.15;6.55;;;3.10;91.00;;;;;;4978391;28;20099;-66
2022/03/04 01:18:50;;;;;;;14.63;6.80;;;3.10;90.90;;;;;;4974241;28;20585;-65
2022/03/04 01:21:16;;;;;;;14.00;6.45;;;3.00;90.80;;;;;;4974944;28;20034;-66
2022/03/04 01:23:41;;;;;;;15.82;6.30;;;3.00;90.90;;;;;;4978366;28;20046;-66
2022/03/04 01:26:07;;;;;;;10.57;5.85;;;3.00;90.90;;;;;;4979190;28;20072;-66
2022/03/04 01:28:33;;;;;;;15.85;6.47;;;3.00;90.90;;;;;;4976863;28;20062;-65
2022/03/04 01:30:59;;;;;;;12.05;6.22;;;3.00;90.80;;;;;;4974248;28;20847;-65
2022/03/04 01:33:25;;;;;;;10.77;6.25;;;3.00;91.00;;;;;;4974568;28;20042;-65
2022/03/04 01:35:51;;;;;;;11.95;6.03;;;3.00;91.00;;;;;;4978326;28;20038;-65
2022/03/04 01:38:16;;;;;;;10.57;6.18;;;3.00;90.70;;;;;;4980280;28;20124;-65
2022/03/04 01:40:43;;;;;;;10.48;6.18;;;2.90;90.90;;;;;;4976175;28;20043;-65
2022/03/04 01:43:08;;;;;;;12.15;5.75;;;2.90;91.00;;;;;;4974128;28;20062;-65
2022/03/04 01:45:34;;;;;;;8.80;5.43;;;2.90;91.10;;;;;;4977282;28;20121;-65
2022/03/04 01:48:00;;;;;;;9.18;5.55;;;2.90;91.00;;;;;;4979845;28;20034;-65
2022/03/04 01:50:26;;;;;;;8.57;5.20;;;2.90;91.10;;;;;;4974904;28;20041;-66
2022/03/04 01:52:52;;;;;;;12.68;5.75;;;2.90;91.00;;;;;;4973480;28;20031;-66
2022/03/04 01:55:18;;;;;;;9.95;5.65;;;2.90;91.00;;;;;;4972054;28;20117;-65
2022/03/04 01:57:44;;;;;;;11.10;5.32;;;2.90;91.10;;;;;;4978269;28;20030;-66
2022/03/04 02:00:12;;;;;;;9.75;5.40;;;2.90;90.90;;;;;;4978194;28;20022;-65
2022/03/04 02:02:39;;;;;;;10.73;5.82;;;2.90;91.00;;;;;;4973782;28;20827;-65
2022/03/04 02:05:05;;;;;;;9.95;5.57;;;2.90;91.00;;;;;;4973793;28;20470;-65
2022/03/04 02:07:31;;;;;;;9.25;5.53;;;2.90;90.90;;;;;;4980247;28;20070;-65
2022/03/04 02:09:57;;;;;;;14.02;5.22;;;2.90;90.90;;;;;;4977054;28;20112;-65
2022/03/04 02:12:23;;;;;;;8.90;4.72;;;2.90;91.00;;;;;;4976955;28;20049;-65
2022/03/04 02:14:48;;;;;;;9.25;5.30;;;2.90;91.00;;;;;;4972935;28;20038;-65
2022/03/04 02:17:14;;;;;;;9.38;4.80;;;2.90;90.80;;;;;;4977766;28;20519;-66
2022/03/04 02:19:40;;;;;;;13.35;5.60;;;2.90;91.00;;;;;;4979482;28;20035;-66
2022/03/04 02:22:07;;;;;;;7.60;5.38;;;2.90;91.00;;;;;;4978174;28;20029;-65
2022/03/04 02:24:33;;;;;;;11.07;5.97;;;2.90;91.00;;;;;;4976556;28;20117;-66
2022/03/04 02:27:01;;;;;;;8.65;5.20;;;3.00;91.00;;;;;;4969730;28;20030;-66
2022/03/04 02:29:27;;;;;;;12.00;6.00;;;3.00;91.00;;;;;;4969006;28;20039;-66
2022/03/04 02:31:53;;;;;;;11.20;6.53;;;3.00;91.00;;;;;;4974901;28;20074;-66
2022/03/04 02:34:20;;;;;;;10.43;6.10;;;2.90;91.10;;;;;;4976558;28;20046;-66
2022/03/04 02:36:46;;;;;;;11.25;5.95;;;2.90;90.90;;;;;;4970945;28;20117;-66
2022/03/04 02:39:12;;;;;;;8.75;5.72;;;2.90;90.90;;;;;;4983496;28;20045;-66
2022/03/04 02:41:38;;;;;;;13.90;6.03;;;3.00;90.90;;;;;;4981789;28;20066;-65
2022/03/04 02:44:06;;;;;;;10.00;5.95;;;3.00;91.00;;;;;;4976201;28;20034;-66
2022/03/04 02:46:33;;;;;;;10.32;5.72;;;3.00;90.90;;;;;;4973164;28;20042;-66
2022/03/04 02:48:58;;;;;;;14.27;6.72;;;3.00;90.90;;;;;;4976622;28;20042;-65
2022/03/04 02:51:24;;;;;;;13.65;7.25;;;3.00;90.90;;;;;;4983895;28;20031;-65
2022/03/04 02:53:51;;;;;;;14.27;5.50;;;3.00;90.90;;;;;;4979744;28;20513;-66
2022/03/04 02:56:20;;;;;;;12.23;5.75;;;3.00;90.80;;;;;;4979803;28;20045;-66
2022/03/04 02:58:46;;;;;;;11.50;6.25;;;3.00;90.70;;;;;;4974669;28;20039;-65
2022/03/04 03:01:12;;;;;;;14.48;5.85;;;3.00;90.70;;;;;;4980292;28;20100;-66
2022/03/04 03:03:38;;;;;;;12.02;6.05;;;3.00;90.70;;;;;;4981667;28;20045;-66
2022/03/04 03:06:04;;;;;;;11.02;5.05;;;3.00;90.70;;;;;;4979518;28;20030;-66
2022/03/04 03:08:30;;;;;;;13.50;5.47;;;3.10;90.50;;;;;;4977739;28;20042;-66
2022/03/04 03:10:56;;;;;;;9.77;5.32;;;3.10;90.70;;;;;;4975770;28;20542;-66
2022/03/04 03:13:22;;;;;;;12.38;6.15;;;3.00;90.70;;;;;;4983521;28;20046;-66
2022/03/04 03:15:49;;;;;;;8.00;5.13;;;3.00;90.60;;;;;;4980735;28;20035;-66
2022/03/04 03:18:15;;;;;;;8.93;5.13;;;3.10;90.70;;;;;;4979613;28;20118;-66
2022/03/04 03:20:41;;;;;;;10.70;5.90;;;3.10;90.60;;;;;;4974691;28;20046;-66
2022/03/04 03:23:07;;;;;;;10.95;6.43;;;3.10;90.60;;;;;;4982966;28;20093;-66
2022/03/04 03:25:33;;;;;;;11.57;6.93;;;3.10;90.30;;;;;;4981621;28;20422;-66
2022/03/04 03:27:59;;;;;;;13.00;7.25;;;3.00;90.30;;;;;;4978236;28;20031;-65
2022/03/04 03:30:25;;;;;;;12.80;7.07;;;2.90;90.50;;;;;;4977014;28;20085;-65
2022/03/04 03:32:50;;;;;;;12.23;6.75;;;2.90;90.60;;;;;;4977607;28;20065;-65
2022/03/04 03:35:16;;;;;;;13.05;6.20;;;2.90;90.70;;;;;;4983845;28;20034;-66
2022/03/04 03:37:42;;;;;;;10.77;6.28;;;3.00;90.70;;;;;;4981204;28;20030;-65
2022/03/04 03:40:10;;;;;;;11.30;5.35;;;3.00;90.60;;;;;;4980985;28;20026;-65
2022/03/04 03:42:37;;;;;;;7.78;5.55;;;3.10;90.60;;;;;;4974698;28;20034;-66
2022/03/04 03:45:04;;;;;;;9.48;5.00;;;3.00;90.60;;;;;;4981909;28;20089;-65
2022/03/04 03:47:30;;;;;;;8.90;5.38;;;3.00;90.70;;;;;;4981875;28;20034;-65
2022/03/04 03:49:56;;;;;;;9.73;5.18;;;3.00;90.80;;;;;;4980151;28;20916;-65
2022/03/04 03:52:21;;;;;;;7.20;4.93;;;3.10;90.80;;;;;;4978264;28;20038;-66
2022/03/04 03:54:47;;;;;;;8.32;5.05;;;3.10;90.70;;;;;;4977571;28;20057;-66
2022/03/04 03:57:13;;;;;;;13.43;5.45;;;3.10;90.60;;;;;;4982177;28;20080;-66
2022/03/04 03:59:39;;;;;;;10.15;5.22;;;3.10;90.50;;;;;;4979913;28;20405;-65
2022/03/04 04:02:05;;;;;;;11.30;4.68;;;3.10;90.60;;;;;;4978105;28;20898;-66
2022/03/04 04:04:34;;;;;;;8.30;3.88;;;3.10;90.50;;;;;;4974851;28;20069;-65
2022/03/04 04:07:03;;;;;;;12.02;4.43;;;3.20;90.60;;;;;;4981149;28;20043;-66
2022/03/04 04:09:29;;;;;;;8.82;3.83;;;3.10;90.60;;;;;;4981361;28;20125;-66
2022/03/04 04:11:55;;;;;;;7.72;3.97;;;3.20;90.70;;;;;;4977404;28;20177;-66
2022/03/04 04:14:21;;;;;;;5.68;3.15;;;3.10;90.70;;;;;;4977207;28;20149;-65
2022/03/04 04:16:46;;;;;;;5.20;3.38;;;3.20;90.70;;;;;;4976587;28;20569;-65
2022/03/04 04:19:12;;;;;;;12.32;4.65;;;3.20;90.60;;;;;;4981727;28;20650;-66
2022/03/04 04:21:38;;;;;;;8.77;3.45;;;3.20;90.50;;;;;;4979010;28;20490;-65
2022/03/04 04:24:05;;;;;;;6.95;3.40;;;3.20;90.50;;;;;;4977510;28;20072;-66
2022/03/04 04:26:31;;;;;;;8.63;3.60;;;3.20;90.40;;;;;;4973598;28;20105;-66
2022/03/04 04:28:57;;;;;;;5.97;3.40;;;3.20;90.50;;;;;;4981004;28;20151;-65
2022/03/04 04:31:24;;;;;;;6.53;3.50;;;3.30;90.50;;;;;;4981601;28;20034;-66
2022/03/04 04:33:50;;;;;;;7.30;3.40;;;3.20;90.60;;;;;;4976249;28;20134;-65
2022/03/04 04:36:17;;;;;;;6.57;3.53;;;3.20;90.70;;;;;;4976870;28;20109;-65
2022/03/04 04:38:42;;;;;;;4.28;3.17;;;3.20;90.50;;;;;;4979833;28;20038;-66
2022/03/04 04:41:08;;;;;;;8.13;3.60;;;3.20;90.60;;;;;;4979567;28;20030;-66
2022/03/04 04:43:35;;;;;;;4.82;3.08;;;3.20;90.80;;;;;;4978747;28;20045;-66
2022/03/04 04:46:01;;;;;;;4.97;3.47;;;3.20;90.80;;;;;;4978491;28;20070;-66
2022/03/04 04:48:27;;;;;;;10.63;4.00;;;3.20;90.70;;;;;;4979657;28;20707;-66
2022/03/04 04:50:53;;;;;;;3.75;2.53;;;3.20;90.80;;;;;;4980958;28;20065;-66
2022/03/04 04:53:18;;;;;;;6.72;3.58;;;3.20;90.80;;;;;;4980523;28;20494;-66
2022/03/04 04:55:44;;;;;;;6.13;3.08;;;3.20;90.80;;;;;;4982539;28;20088;-66
2022/03/04 04:58:10;;;;;;;3.95;2.72;;;3.20;90.80;;;;;;4980688;28;20130;-65
2022/03/04 05:00:36;;;;;;;6.15;3.42;;;3.20;90.80;;;;;;4982513;28;20138;-65
2022/03/04 05:03:01;;;;;;;5.97;3.35;;;3.20;90.60;;;;;;4981644;28;20478;-66
2022/03/04 05:05:27;;;;;;;7.95;3.42;;;3.20;90.70;;;;;;4980009;28;20137;-66
2022/03/04 05:07:53;;;;;;;7.70;3.58;;;3.20;90.70;;;;;;4977230;28;20066;-66
2022/03/04 05:10:19;;;;;;;4.53;2.92;;;3.20;90.80;;;;;;4975362;28;20078;-65
2022/03/04 05:12:44;;;;;;;5.85;2.90;;;3.10;90.70;;;;;;4981676;28;20034;-66
2022/03/04 05:15:10;;;;;;;6.53;2.92;;;3.10;90.80;;;;;;4976706;28;20204;-66
2022/03/04 05:17:37;;;;;;;4.68;3.22;;;3.10;90.90;;;;;;4978441;28;20894;-66
2022/03/04 05:20:03;;;;;;;5.65;2.83;;;3.10;90.90;;;;;;4977708;28;20389;-66
2022/03/04 05:22:29;;;;;;;3.60;2.58;;;3.10;90.90;;;;;;4979101;28;20026;-66
2022/03/04 05:24:55;;;;;;;7.45;3.40;;;3.10;90.90;;;;;;4979531;28;20453;-66
2022/03/04 05:27:20;;;;;;;7.80;4.45;;;3.10;90.90;;;;;;4980148;28;20038;-66
2022/03/04 05:29:46;;;;;;;30.95;15.25;;;3.10;90.90;;;;;;4979073;28;20042;-66
2022/03/04 05:32:12;;;;;;;43.28;20.92;;;3.10;91.00;;;;;;4982576;28;20030;-66
2022/03/04 05:34:38;;;;;;;45.35;22.52;;;3.10;90.90;;;;;;4974992;28;20034;-66
2022/03/04 05:37:04;;;;;;;29.52;15.55;;;3.10;91.00;;;;;;4981807;28;20494;-66
2022/03/04 05:39:30;;;;;;;16.10;9.00;;;3.10;91.00;;;;;;4977868;28;20569;-65
2022/03/04 05:41:56;;;;;;;11.98;5.93;;;3.00;91.00;;;;;;4976915;28;20034;-65
2022/03/04 05:44:22;;;;;;;5.72;3.47;;;3.00;91.00;;;;;;4978702;28;20146;-66
2022/03/04 05:46:47;;;;;;;5.40;3.08;;;2.90;91.00;;;;;;4978958;28;20592;-66
2022/03/04 05:49:13;;;;;;;4.30;2.50;;;2.90;91.00;;;;;;4980178;28;20042;-66
2022/03/04 05:51:39;;;;;;;6.07;3.10;;;2.90;91.10;;;;;;4976038;28;20108;-66
2022/03/04 05:54:04;;;;;;;6.55;2.80;;;2.90;91.20;;;;;;4977663;28;20030;-67
2022/03/04 05:56:30;;;;;;;5.95;2.95;;;2.90;91.20;;;;;;4984158;28;20038;-66
2022/03/04 05:58:56;;;;;;;4.68;2.45;;;2.90;91.30;;;;;;4975970;28;20031;-65
2022/03/04 06:01:22;;;;;;;6.72;2.80;;;2.90;91.30;;;;;;4979333;28;20034;-65
2022/03/04 06:03:48;;;;;;;4.85;2.97;;;3.00;91.20;;;;;;4978341;28;20065;-65
2022/03/04 06:06:14;;;;;;;4.47;2.65;;;3.10;91.30;;;;;;4977997;28;20141;-66
2022/03/04 06:08:40;;;;;;;5.68;3.03;;;3.10;91.30;;;;;;4979581;28;20030;-66
2022/03/04 06:11:09;;;;;;;7.72;3.30;;;3.10;91.20;;;;;;4960927;28;20033;-66
2022/03/04 06:13:39;;;;;;;5.57;3.20;;;3.20;91.20;;;;;;4975844;28;20034;-66
2022/03/04 06:16:05;;;;;;;5.93;3.20;;;3.20;91.10;;;;;;4976288;28;20027;-66
2022/03/04 06:18:31;;;;;;;3.75;3.08;;;3.30;91.20;;;;;;4981260;28;20039;-66
2022/03/04 06:20:57;;;;;;;12.30;4.60;;;3.30;91.10;;;;;;4975815;28;20027;-66
2022/03/04 06:23:23;;;;;;;5.63;3.58;;;3.40;91.00;;;;;;4978214;28;20037;-66
2022/03/04 06:25:50;;;;;;;6.70;3.33;;;3.50;90.90;;;;;;4974198;28;20769;-66
2022/03/04 06:28:16;;;;;;;9.80;3.83;;;3.50;90.90;;;;;;4982207;28;20039;-66
2022/03/04 06:30:42;;;;;;;11.48;5.00;;;3.60;90.90;;;;;;4984309;28;20073;-65
2022/03/04 06:35:53;;;;;;;8.85;4.40;;;3.70;90.50;;;;;;4980040;28;20439;-66
2022/03/04 06:38:19;;;;;;;7.75;4.35;;;3.80;90.30;;;;;;4978869;28;20447;-66
2022/03/04 06:40:46;;;;;;;8.05;4.13;;;3.80;90.20;;;;;;4979481;28;20110;-66
2022/03/04 06:43:12;;;;;;;7.18;3.97;;;3.90;90.10;;;;;;4984110;28;20500;-66
2022/03/04 06:45:42;;;;;;;4.75;3.38;;;4.10;90.00;;;;;;4980109;28;20026;-65
2022/03/04 06:48:08;;;;;;;7.10;3.40;;;4.20;89.50;;;;;;4977944;28;20026;-66
2022/03/04 06:50:34;;;;;;;6.88;3.72;;;4.30;89.20;;;;;;4985947;28;20038;-66
2022/03/04 06:53:00;;;;;;;6.82;3.50;;;4.40;88.60;;;;;;4980047;28;20034;-66
2022/03/04 06:55:26;;;;;;;7.03;3.70;;;4.50;88.40;;;;;;4980108;28;20705;-66
2022/03/04 06:57:53;;;;;;;5.45;3.50;;;4.70;87.80;;;;;;4979335;28;20049;-65
2022/03/04 07:00:19;;;;;;;6.20;3.25;;;4.80;87.40;;;;;;4987642;28;20042;-66
2022/03/04 07:02:45;;;;;;;7.60;3.28;;;4.90;86.50;;;;;;4981389;28;20115;-66
2022/03/04 07:05:11;;;;;;;6.00;3.45;;;4.90;86.00;;;;;;4982485;28;20186;-66
2022/03/04 07:07:36;;;;;;;5.72;2.78;;;5.00;85.50;;;;;;4970774;28;20034;-64
2022/03/04 07:10:04;;;;;;;4.18;2.90;;;5.10;85.10;;;;;;4982431;28;20039;-66
2022/03/04 07:12:30;;;;;;;5.15;2.75;;;5.20;84.60;;;;;;4986193;28;20056;-67
2022/03/04 07:14:56;;;;;;;5.47;2.70;;;5.40;84.40;;;;;;4979030;28;20042;-67
2022/03/04 07:17:22;;;;;;;13.43;5.82;;;5.50;83.90;;;;;;4980961;28;20038;-67
2022/03/04 07:19:48;;;;;;;4.70;3.10;;;5.60;83.00;;;;;;4980608;28;20034;-65
2022/03/04 07:22:14;;;;;;;4.50;2.50;;;5.60;82.70;;;;;;4971029;28;20030;-65
2022/03/04 07:24:40;;;;;;;5.35;1.95;;;5.60;82.70;;;;;;4981901;28;20100;-64
2022/03/04 07:27:06;;;;;;;4.60;2.10;;;5.60;83.20;;;;;;4978427;28;20779;-65
2022/03/04 07:29:32;;;;;;;5.60;2.00;;;5.70;82.60;;;;;;4978130;28;20045;-64
2022/03/04 07:31:58;;;;;;;4.03;2.20;;;5.70;82.50;;;;;;4982259;28;20192;-65
2022/03/04 07:34:24;;;;;;;3.20;1.85;;;5.80;82.40;;;;;;4983221;28;20084;-65
2022/03/04 07:36:51;;;;;;;3.17;1.80;;;5.90;82.10;;;;;;4980303;28;20031;-65
2022/03/04 07:39:17;;;;;;;4.60;1.70;;;6.00;82.00;;;;;;4979271;28;20141;-65
2022/03/04 07:41:44;;;;;;;5.00;1.77;;;6.00;81.80;;;;;;4975725;28;20041;-65
2022/03/04 07:44:11;;;;;;;5.60;1.90;;;6.00;81.30;;;;;;4983805;28;20037;-65
2022/03/04 07:46:37;;;;;;;4.28;1.63;;;6.00;81.30;;;;;;4979355;28;20479;-65
2022/03/04 07:49:03;;;;;;;2.67;2.00;;;6.00;81.10;;;;;;4980720;28;20041;-65
2022/03/04 07:51:29;;;;;;;4.35;1.73;;;6.00;80.70;;;;;;4981454;28;20038;-69
2022/03/04 07:53:55;;;;;;;4.50;1.50;;;6.10;80.80;;;;;;4979406;28;20049;-66
2022/03/04 07:56:21;;;;;;;5.78;1.80;;;6.10;81.00;;;;;;4981774;28;20144;-66
2022/03/04 07:58:47;;;;;;;4.53;1.88;;;6.20;80.80;;;;;;4980162;28;20030;-66
2022/03/04 08:01:13;;;;;;;3.75;1.50;;;6.20;80.90;;;;;;4983769;28;20116;-66
2022/03/04 08:03:38;;;;;;;4.95;1.95;;;6.20;80.60;;;;;;4977273;28;20039;-70
2022/03/04 08:06:04;;;;;;;11.95;2.15;;;6.20;80.40;;;;;;4983152;28;20038;-64
2022/03/04 08:08:30;;;;;;;3.33;1.98;;;6.20;80.90;;;;;;4978526;28;20447;-64
2022/03/04 08:10:56;;;;;;;4.30;1.73;;;6.30;80.50;;;;;;4979546;28;20700;-65
2022/03/04 08:13:22;;;;;;;2.83;1.55;;;6.30;80.10;;;;;;4976628;28;20042;-66
2022/03/04 08:15:47;;;;;;;4.20;1.83;;;6.40;79.90;;;;;;4979756;28;20034;-66
2022/03/04 08:18:13;;;;;;;5.75;2.00;;;6.40;79.80;;;;;;4977768;28;20057;-66
2022/03/04 08:20:39;;;;;;;6.57;1.83;;;6.50;79.30;;;;;;4980761;28;20057;-67
2022/03/04 08:23:05;;;;;;;7.22;2.28;;;6.50;78.80;;;;;;4980516;28;20023;-66
2022/03/04 08:25:31;;;;;;;5.55;2.00;;;6.50;79.20;;;;;;4975887;28;20542;-67
2022/03/04 08:27:57;;;;;;;7.00;2.50;;;6.60;79.10;;;;;;4981737;28;20113;-68
2022/03/04 08:30:23;;;;;;;6.53;2.15;;;6.60;78.70;;;;;;4965639;28;20038;-67
2022/03/04 08:32:49;;;;;;;3.33;1.73;;;6.70;78.70;;;;;;4976148;28;20039;-67
2022/03/04 08:35:15;;;;;;;6.97;2.03;;;6.70;78.20;;;;;;4979552;28;20079;-67
2022/03/04 08:37:41;;;;;;;4.40;2.08;;;6.60;78.80;;;;;;4979651;28;20065;-69
2022/03/04 08:40:09;;;;;;;5.05;2.03;;;6.70;78.80;;;;;;4981698;28;20557;-69
2022/03/04 08:42:36;;;;;;;4.78;2.03;;;6.80;78.30;;;;;;4961561;28;20073;-68
2022/03/04 08:45:02;;;;;;;4.43;1.90;;;6.80;78.10;;;;;;4979674;28;20050;-67
2022/03/04 08:47:28;;;;;;;5.50;2.30;;;6.90;78.20;;;;;;4975367;28;20035;-68
2022/03/04 08:49:54;;;;;;;8.50;3.30;;;6.90;77.20;;;;;;4980472;28;20506;-67
2022/03/04 08:52:19;;;;;;;4.97;1.95;;;7.00;77.30;;;;;;4982032;28;20668;-75
2022/03/04 08:54:45;;;;;;;5.63;2.08;;;7.10;77.00;;;;;;4977528;28;20064;-76
2022/03/04 08:57:12;;;;;;;4.97;1.73;;;7.10;76.60;;;;;;4982442;28;20042;-75
2022/03/04 08:59:38;;;;;;;4.57;1.52;;;7.20;76.30;;;;;;4982270;28;20089;-76
2022/03/04 09:02:05;;;;;;;5.20;1.58;;;7.20;76.70;;;;;;4979115;28;20494;-73
2022/03/04 09:04:30;;;;;;;6.22;1.90;;;7.30;76.20;;;;;;4980028;28;20034;-73
2022/03/04 09:06:57;;;;;;;3.03;1.77;;;7.50;75.30;;;;;;4979768;28;20146;-73
2022/03/04 09:09:22;;;;;;;5.00;1.58;;;7.60;74.50;;;;;;4965081;28;20042;-73
2022/03/04 09:11:48;;;;;;;5.18;1.65;;;7.60;73.60;;;;;;4977157;28;20085;-73
2022/03/04 09:14:19;;;;;;;3.33;1.70;;;7.70;73.20;;;;;;4981281;28;20696;-73
2022/03/04 09:16:45;;;;;;;3.08;1.40;;;7.80;72.20;;;;;;4979945;28;20049;-73
2022/03/04 09:19:11;;;;;;;1.88;1.60;;;7.90;72.00;;;;;;4977806;28;20042;-75
2022/03/04 09:21:37;;;;;;;3.97;1.45;;;8.00;70.60;;;;;;4978599;28;20485;-74
2022/03/04 09:24:04;;;;;;;6.13;1.40;;;8.20;70.20;;;;;;4979866;28;20774;-74
2022/03/04 09:26:30;;;;;;;4.50;1.80;;;8.20;69.60;;;;;;4978265;28;20065;-73
2022/03/04 09:28:56;;;;;;;2.10;1.40;;;8.20;67.00;;;;;;4976578;28;20271;-73
2022/03/04 09:31:22;;;;;;;6.15;1.80;;;8.10;67.80;;;;;;4978326;28;20073;-74
2022/03/04 09:33:48;;;;;;;4.00;1.55;;;8.00;67.10;;;;;;4980094;28;20077;-74
2022/03/04 09:36:15;;;;;;;3.88;1.67;;;8.10;67.10;;;;;;4980429;28;20073;-75
2022/03/04 09:38:41;;;;;;;4.00;2.30;;;8.30;66.90;;;;;;4980028;28;20049;-73
2022/03/04 09:41:08;;;;;;;2.97;1.95;;;8.50;65.10;;;;;;4977751;28;20445;-73
2022/03/04 09:43:35;;;;;;;3.78;2.67;;;8.70;64.00;;;;;;4981563;28;20038;-72
2022/03/04 09:46:01;;;;;;;5.95;2.22;;;8.70;63.50;;;;;;4977090;28;20050;-73
2022/03/04 09:48:27;;;;;;;5.60;2.70;;;8.70;63.10;;;;;;4977996;28;20042;-72
2022/03/04 09:50:53;;;;;;;2.85;1.80;;;8.60;63.20;;;;;;4973839;28;20169;-73
2022/03/04 09:53:18;;;;;;;7.20;2.40;;;8.30;62.90;;;;;;4977947;28;20035;-74
2022/03/04 09:55:45;;;;;;;11.88;2.05;;;8.00;62.20;;;;;;4977284;28;20026;-74
2022/03/04 09:58:13;;;;;;;4.53;1.80;;;7.70;63.20;;;;;;4975239;28;20045;-73
2022/03/04 10:00:39;;;;;;;3.70;1.95;;;7.60;64.40;;;;;;4973751;28;20220;-73
2022/03/04 10:03:10;;;;;;;3.58;2.10;;;7.60;63.90;;;;;;4972997;28;20031;-73
2022/03/04 10:05:51;;;;;;;6.32;2.20;;;7.60;63.60;;;;;;4973508;28;20092;-74
2022/03/04 10:08:19;;;;;;;6.07;2.50;;;7.70;63.80;;;;;;4977690;28;20125;-74
2022/03/04 10:10:52;;;;;;;3.90;2.17;;;7.80;62.50;;;;;;4974786;28;20117;-72
2022/03/04 10:13:38;;;;;;;2.65;1.60;;;8.00;61.10;;;;;;4974774;28;20061;-73
2022/03/04 10:16:04;;;;;;;5.97;2.33;;;8.10;58.80;;;;;;4979573;28;20062;-73
2022/03/04 10:18:30;;;;;;;3.50;1.60;;;8.20;60.60;;;;;;4975398;28;20042;-73
2022/03/04 10:20:56;;;;;;;4.07;1.80;;;8.20;59.90;;;;;;4975016;28;20038;-73
2022/03/04 10:23:24;;;;;;;3.72;1.80;;;8.40;59.90;;;;;;4974230;28;20061;-73
2022/03/04 10:25:56;;;;;;;4.28;1.80;;;8.60;58.80;;;;;;4973750;28;20117;-74
2022/03/04 10:28:26;;;;;;;3.35;1.40;;;8.70;57.50;;;;;;4979169;28;20045;-73
2022/03/04 10:30:53;;;;;;;4.85;1.40;;;8.80;56.90;;;;;;4979685;28;20026;-73
2022/03/04 10:33:20;;;;;;;3.05;1.23;;;8.60;57.40;;;;;;4976827;28;20705;-73
2022/03/04 10:35:50;;;;;;;4.15;1.23;;;8.40;57.80;;;;;;4973499;28;20027;-72
2022/03/04 10:38:24;;;;;;;3.45;1.63;;;8.30;58.20;;;;;;4976350;28;20039;-73
2022/03/04 10:40:51;;;;;;;3.40;1.65;;;8.40;58.00;;;;;;4975180;28;20034;-73
2022/03/04 10:43:23;;;;;;;2.92;1.75;;;8.50;58.60;;;;;;4981276;28;20829;-74
2022/03/04 10:46:05;;;;;;;3.97;2.17;;;8.80;58.60;;;;;;4970753;28;20043;-74
2022/03/04 10:48:31;;;;;;;5.22;2.65;;;8.80;56.80;;;;;;4979538;28;20030;-73
2022/03/04 10:51:00;;;;;;;4.90;2.60;;;8.70;55.90;;;;;;4977552;28;20558;-73
2022/03/04 10:53:28;;;;;;;3.47;2.22;;;8.30;54.80;;;;;;4976800;28;20034;-73
2022/03/04 10:56:03;;;;;;;3.95;2.33;;;8.00;55.90;;;;;;4978124;28;20078;-73
2022/03/04 10:58:37;;;;;;;4.82;2.20;;;7.70;57.90;;;;;;4977345;28;20109;-73
2022/03/04 11:01:12;;;;;;;7.25;3.10;;;7.60;58.30;;;;;;4979865;28;20442;-73
2022/03/04 11:03:40;;;;;;;5.47;2.23;;;7.50;59.30;;;;;;4978072;28;20042;-73
2022/03/04 11:06:07;;;;;;;5.50;3.22;;;7.40;59.50;;;;;;4979009;28;20031;-73
2022/03/04 11:08:33;;;;;;;5.78;2.38;;;7.40;60.80;;;;;;4973912;28;20034;-73
2022/03/04 11:10:59;;;;;;;4.70;2.90;;;7.40;59.80;;;;;;4980160;28;20867;-73
2022/03/04 11:13:26;;;;;;;8.20;3.05;;;7.40;60.40;;;;;;4982771;28;20133;-73
2022/03/04 11:15:54;;;;;;;4.55;2.22;;;7.50;60.70;;;;;;4981931;28;20090;-72
2022/03/04 11:18:23;;;;;;;6.38;2.35;;;7.50;58.70;;;;;;4980330;28;20046;-75
2022/03/04 11:20:54;;;;;;;3.33;2.10;;;7.50;58.30;;;;;;4981135;28;20058;-73
2022/03/04 11:23:25;;;;;;;2.75;1.80;;;7.50;57.90;;;;;;4979180;28;20026;-74
2022/03/04 11:25:52;;;;;;;3.08;2.05;;;7.40;57.90;;;;;;4982054;28;20031;-74
2022/03/04 11:28:19;;;;;;;2.75;2.03;;;7.50;58.60;;;;;;4974166;28;20749;-74
2022/03/04 11:30:58;;;;;;;5.30;2.30;;;7.60;57.60;;;;;;4980679;28;20080;-74
2022/03/04 11:33:32;;;;;;;2.78;1.88;;;7.70;56.90;;;;;;4979504;28;20617;-74
2022/03/04 11:36:05;;;;;;;2.28;1.92;;;7.60;57.60;;;;;;4980887;28;20034;-74
2022/03/04 11:38:49;;;;;;;48.70;4.28;;;7.60;57.80;;;;;;4981753;28;20038;-74
2022/03/04 11:41:34;;;;;;;4.43;1.77;;;7.60;57.90;;;;;;4977113;28;20034;-74
2022/03/04 11:44:17;;;;;;;3.20;2.17;;;7.80;57.40;;;;;;4984270;28;20073;-75
2022/03/04 11:46:49;;;;;;;4.45;1.88;;;7.80;56.70;;;;;;4979594;28;20070;-74
2022/03/04 11:49:48;;;;;;;3.50;2.03;;;7.70;57.40;;;;;;4983065;28;20034;-73
2022/03/04 11:52:21;;;;;;;4.93;1.80;;;7.80;58.50;;;;;;4981101;28;20038;-71
2022/03/04 11:55:09;;;;;;;4.13;1.70;;;7.90;58.70;;;;;;4983135;28;20141;-73
2022/03/04 11:57:43;;;;;;;3.75;1.98;;;7.90;58.50;;;;;;4977584;28;20030;-72
2022/03/04 12:00:16;;;;;;;4.10;1.88;;;7.80;58.60;;;;;;4980956;28;20043;-73
2022/03/04 12:02:42;;;;;;;3.53;1.92;;;7.80;58.80;;;;;;4979541;28;20030;-73
2022/03/04 12:05:21;;;;;;;3.67;1.80;;;7.90;59.10;;;;;;4981899;28;20033;-74
2022/03/04 12:08:05;;;;;;;7.90;1.58;;;8.10;58.60;;;;;;4980133;28;20088;-74
2022/03/04 12:10:39;;;;;;;11.20;2.53;;;8.30;58.60;;;;;;4976865;28;20117;-74
2022/03/04 12:13:06;;;;;;;7.30;1.45;;;8.60;58.00;;;;;;4975963;28;20026;-74
2022/03/04 12:15:37;;;;;;;6.55;1.50;;;8.80;56.80;;;;;;4979412;28;20035;-73
2022/03/04 12:18:23;;;;;;;5.07;1.30;;;8.80;57.20;;;;;;4976150;28;20068;-72
2022/03/04 12:21:07;;;;;;;3.33;1.40;;;8.90;56.40;;;;;;4979598;28;20042;-71
2022/03/04 12:23:37;;;;;;;5.72;1.70;;;9.00;56.00;;;;;;4975098;28;20443;-72
2022/03/04 12:26:04;;;;;;;2.35;1.27;;;9.10;55.20;;;;;;4981368;28;20038;-71
2022/03/04 12:28:39;;;;;;;2.05;0.90;;;9.20;54.00;;;;;;4982002;28;20069;-74
2022/03/04 12:31:05;;;;;;;1.25;0.90;;;8.90;53.40;;;;;;4982348;28;20061;-72
2022/03/04 12:33:33;;;;;;;6.57;1.25;;;8.80;54.30;;;;;;4973856;28;20045;-73
2022/03/04 12:36:00;;;;;;;4.50;1.25;;;8.70;54.50;;;;;;4980637;28;20030;-73
2022/03/04 12:38:28;;;;;;;1.45;0.93;;;8.70;54.60;;;;;;4981387;28;20022;-74
2022/03/04 12:41:00;;;;;;;4.07;1.60;;;8.70;54.80;;;;;;4980646;28;20034;-73
2022/03/04 12:43:26;;;;;;;1.48;0.98;;;8.60;54.00;;;;;;4979671;28;20030;-73
2022/03/04 12:45:54;;;;;;;3.38;1.48;;;8.60;54.20;;;;;;4978138;28;20030;-73
2022/03/04 12:48:20;;;;;;;2.30;1.30;;;8.80;53.80;;;;;;4979263;28;20035;-74
2022/03/04 12:50:46;;;;;;;4.25;1.60;;;9.00;52.90;;;;;;4980593;28;20148;-73
2022/03/04 12:53:20;;;;;;;3.72;1.70;;;9.20;53.30;;;;;;4978570;28;20038;-73
2022/03/04 12:55:54;;;;;;;4.28;1.75;;;9.40;50.60;;;;;;4979198;28;20116;-70